sensor_id;sensor_type;location;lat;lon;timestamp;pressure;altitude;pressure_sealevel;temperature;humidity
74960;BME280;63518;49.572;1.106;2024-01-30T00:02:15;100660.25;;;8.97;100.00
74960;BME280;63518;49.572;1.106;2024-01-30T00:04:42;100661.06;;;8.76;100.00
74960;BME280;63518;49.572;1.106;2024-01-30T00:07:09;100649.34;;;8.85;100.00
74960;BME280;63518;49.572;1.106;2024-01-30T00:09:38;100656.91;;;8.73;100.00
74960;BME280;63518;49.572;1.106;2024-01-30T00:12:06;100647.13;;;8.82;100.00
74960;BME280;63518;49.572;1.106;2024-01-30T00:14:33;100646.34;;;8.87;100.00
74960;BME280;63518;49.572;1.106;2024-01-30T00:17:00;100645.47;;;8.81;100.00
74960;BME280;63518;49.572;1.106;2024-01-30T00:19:26;100647.13;;;8.82;100.00
74960;BME280;63518;49.572;1.106;2024-01-30T00:21:53;100652.94;;;9.08;100.00
74960;BME280;63518;49.572;1.106;2024-01-30T00:24:20;100654.56;;;8.82;100.00
74960;BME280;63518;49.572;1.106;2024-01-30T00:26:46;100637.88;;;8.72;100.00
74960;BME280;63518;49.572;1.106;2024-01-30T00:29:13;100657.13;;;8.88;100.00
74960;BME280;63518;49.572;1.106;2024-01-30T00:31:46;100650.38;;;9.01;100.00
74960;BME280;63518;49.572;1.106;2024-01-30T00:34:12;100643.84;;;9.07;100.00
74960;BME280;63518;49.572;1.106;2024-01-30T00:36:39;100648.25;;;8.86;100.00
74960;BME280;63518;49.572;1.106;2024-01-30T00:39:06;100639.81;;;8.93;100.00
74960;BME280;63518;49.572;1.106;2024-01-30T00:41:35;100645.13;;;9.00;100.00
74960;BME280;63518;49.572;1.106;2024-01-30T00:44:02;100643.94;;;9.12;100.00
74960;BME280;63518;49.572;1.106;2024-01-30T00:46:29;100630.34;;;9.06;100.00
74960;BME280;63518;49.572;1.106;2024-01-30T00:48:55;100647.63;;;9.01;100.00
74960;BME280;63518;49.572;1.106;2024-01-30T00:51:22;100645.03;;;9.11;100.00
74960;BME280;63518;49.572;1.106;2024-01-30T00:53:49;100654.88;;;9.07;100.00
74960;BME280;63518;49.572;1.106;2024-01-30T00:56:15;100652.75;;;9.14;100.00
74960;BME280;63518;49.572;1.106;2024-01-30T00:58:44;100645.78;;;9.07;100.00
74960;BME280;63518;49.572;1.106;2024-01-30T01:01:11;100645.06;;;9.16;100.00
74960;BME280;63518;49.572;1.106;2024-01-30T01:03:38;100647.25;;;9.14;100.00
74960;BME280;63518;49.572;1.106;2024-01-30T01:06:07;100651.41;;;9.17;100.00
74960;BME280;63518;49.572;1.106;2024-01-30T01:08:34;100640.53;;;9.05;100.00
74960;BME280;63518;49.572;1.106;2024-01-30T01:11:01;100660.63;;;9.06;100.00
74960;BME280;63518;49.572;1.106;2024-01-30T01:13:27;100647.44;;;9.08;100.00
74960;BME280;63518;49.572;1.106;2024-01-30T01:15:54;100637.69;;;9.00;100.00
74960;BME280;63518;49.572;1.106;2024-01-30T01:18:21;100624.31;;;9.09;100.00
74960;BME280;63518;49.572;1.106;2024-01-30T01:20:49;100632.91;;;9.12;100.00
74960;BME280;63518;49.572;1.106;2024-01-30T01:23:15;100637.34;;;9.18;100.00
74960;BME280;63518;49.572;1.106;2024-01-30T01:25:42;100640.38;;;9.17;100.00
74960;BME280;63518;49.572;1.106;2024-01-30T01:28:09;100639.34;;;9.23;100.00
74960;BME280;63518;49.572;1.106;2024-01-30T01:30:35;100643.47;;;9.20;100.00
74960;BME280;63518;49.572;1.106;2024-01-30T01:33:02;100638.00;;;9.47;100.00
74960;BME280;63518;49.572;1.106;2024-01-30T01:35:29;100636.66;;;9.28;100.00
74960;BME280;63518;49.572;1.106;2024-01-30T01:37:56;100638.09;;;9.31;100.00
74960;BME280;63518;49.572;1.106;2024-01-30T01:40:25;100648.34;;;9.62;100.00
74960;BME280;63518;49.572;1.106;2024-01-30T01:42:52;100640.78;;;9.79;100.00
74960;BME280;63518;49.572;1.106;2024-01-30T01:45:20;100649.19;;;9.36;100.00
74960;BME280;63518;49.572;1.106;2024-01-30T01:47:52;100644.13;;;9.55;100.00
74960;BME280;63518;49.572;1.106;2024-01-30T01:50:21;100644.66;;;9.51;100.00
74960;BME280;63518;49.572;1.106;2024-01-30T01:52:48;100634.50;;;9.57;100.00
74960;BME280;63518;49.572;1.106;2024-01-30T01:55:16;100638.81;;;9.48;100.00
74960;BME280;63518;49.572;1.106;2024-01-30T01:57:48;100637.88;;;9.64;100.00
74960;BME280;63518;49.572;1.106;2024-01-30T02:00:16;100620.09;;;9.50;100.00
74960;BME280;63518;49.572;1.106;2024-01-30T02:02:43;100621.19;;;9.49;100.00
74960;BME280;63518;49.572;1.106;2024-01-30T02:05:11;100606.00;;;9.19;100.00
74960;BME280;63518;49.572;1.106;2024-01-30T02:07:38;100614.47;;;9.40;100.00
74960;BME280;63518;49.572;1.106;2024-01-30T02:10:07;100607.19;;;9.29;100.00
74960;BME280;63518;49.572;1.106;2024-01-30T02:12:34;100609.44;;;9.32;100.00
74960;BME280;63518;49.572;1.106;2024-01-30T02:15:01;100608.91;;;9.35;100.00
74960;BME280;63518;49.572;1.106;2024-01-30T02:17:28;100613.72;;;9.44;100.00
74960;BME280;63518;49.572;1.106;2024-01-30T02:19:54;100617.56;;;9.43;100.00
74960;BME280;63518;49.572;1.106;2024-01-30T02:22:22;100619.03;;;9.51;100.00
74960;BME280;63518;49.572;1.106;2024-01-30T02:24:49;100627.88;;;9.58;100.00
74960;BME280;63518;49.572;1.106;2024-01-30T02:27:16;100643.44;;;9.69;100.00
74960;BME280;63518;49.572;1.106;2024-01-30T02:29:43;100639.53;;;9.65;100.00
74960;BME280;63518;49.572;1.106;2024-01-30T02:32:09;100641.22;;;9.39;100.00
74960;BME280;63518;49.572;1.106;2024-01-30T02:34:36;100629.50;;;9.54;100.00
74960;BME280;63518;49.572;1.106;2024-01-30T02:37:03;100628.41;;;9.55;100.00
74960;BME280;63518;49.572;1.106;2024-01-30T02:39:30;100641.16;;;9.61;100.00
74960;BME280;63518;49.572;1.106;2024-01-30T02:41:56;100647.88;;;9.70;100.00
74960;BME280;63518;49.572;1.106;2024-01-30T02:44:23;100633.31;;;9.48;100.00
74960;BME280;63518;49.572;1.106;2024-01-30T02:46:50;100641.72;;;9.63;100.00
74960;BME280;63518;49.572;1.106;2024-01-30T02:49:17;100641.84;;;9.46;100.00
74960;BME280;63518;49.572;1.106;2024-01-30T02:51:43;100618.91;;;9.41;100.00
74960;BME280;63518;49.572;1.106;2024-01-30T02:54:10;100622.56;;;9.46;100.00
74960;BME280;63518;49.572;1.106;2024-01-30T02:56:37;100617.81;;;9.42;100.00
74960;BME280;63518;49.572;1.106;2024-01-30T02:59:03;100620.00;;;9.40;100.00
74960;BME280;63518;49.572;1.106;2024-01-30T03:01:30;100616.22;;;9.46;100.00
74960;BME280;63518;49.572;1.106;2024-01-30T03:03:58;100629.94;;;9.41;100.00
74960;BME280;63518;49.572;1.106;2024-01-30T03:06:25;100629.72;;;9.25;100.00
74960;BME280;63518;49.572;1.106;2024-01-30T03:08:51;100637.81;;;9.32;100.00
74960;BME280;63518;49.572;1.106;2024-01-30T03:11:18;100644.53;;;9.41;100.00
74960;BME280;63518;49.572;1.106;2024-01-30T03:13:45;100643.69;;;9.41;100.00
74960;BME280;63518;49.572;1.106;2024-01-30T03:16:12;100643.78;;;9.46;100.00
74960;BME280;63518;49.572;1.106;2024-01-30T03:18:38;100644.50;;;9.36;100.00
74960;BME280;63518;49.572;1.106;2024-01-30T03:21:05;100641.00;;;9.46;100.00
74960;BME280;63518;49.572;1.106;2024-01-30T03:23:32;100642.13;;;9.50;100.00
74960;BME280;63518;49.572;1.106;2024-01-30T03:25:59;100643.84;;;9.56;100.00
74960;BME280;63518;49.572;1.106;2024-01-30T03:28:25;100637.09;;;9.42;100.00
74960;BME280;63518;49.572;1.106;2024-01-30T03:30:52;100639.44;;;9.55;100.00
74960;BME280;63518;49.572;1.106;2024-01-30T03:33:19;100630.75;;;9.41;100.00
74960;BME280;63518;49.572;1.106;2024-01-30T03:35:46;100644.59;;;9.46;100.00
74960;BME280;63518;49.572;1.106;2024-01-30T03:38:13;100649.81;;;9.43;100.00
74960;BME280;63518;49.572;1.106;2024-01-30T03:40:39;100661.50;;;9.55;100.00
74960;BME280;63518;49.572;1.106;2024-01-30T03:43:06;100646.16;;;9.37;100.00
74960;BME280;63518;49.572;1.106;2024-01-30T03:45:32;100651.09;;;9.62;100.00
74960;BME280;63518;49.572;1.106;2024-01-30T03:47:59;100645.31;;;9.37;100.00
74960;BME280;63518;49.572;1.106;2024-01-30T03:50:26;100649.56;;;9.49;100.00
74960;BME280;63518;49.572;1.106;2024-01-30T03:52:54;100650.31;;;9.67;100.00
74960;BME280;63518;49.572;1.106;2024-01-30T03:55:21;100648.13;;;9.42;100.00
74960;BME280;63518;49.572;1.106;2024-01-30T03:57:48;100652.03;;;9.46;100.00
74960;BME280;63518;49.572;1.106;2024-01-30T04:00:15;100640.75;;;9.47;100.00
74960;BME280;63518;49.572;1.106;2024-01-30T04:02:41;100647.50;;;9.35;100.00
74960;BME280;63518;49.572;1.106;2024-01-30T04:05:08;100651.47;;;9.44;100.00
74960;BME280;63518;49.572;1.106;2024-01-30T04:07:35;100663.13;;;9.51;100.00
74960;BME280;63518;49.572;1.106;2024-01-30T04:10:02;100650.63;;;9.43;100.00
74960;BME280;63518;49.572;1.106;2024-01-30T04:12:32;100656.16;;;9.43;100.00
74960;BME280;63518;49.572;1.106;2024-01-30T04:14:59;100646.47;;;9.41;100.00
74960;BME280;63518;49.572;1.106;2024-01-30T04:17:25;100655.69;;;9.30;100.00
74960;BME280;63518;49.572;1.106;2024-01-30T04:19:52;100660.66;;;9.55;100.00
74960;BME280;63518;49.572;1.106;2024-01-30T04:22:19;100656.72;;;9.23;100.00
74960;BME280;63518;49.572;1.106;2024-01-30T04:24:46;100652.75;;;9.14;100.00
74960;BME280;63518;49.572;1.106;2024-01-30T04:27:13;100651.94;;;9.14;100.00
74960;BME280;63518;49.572;1.106;2024-01-30T04:29:40;100644.03;;;9.22;100.00
74960;BME280;63518;49.572;1.106;2024-01-30T04:32:06;100654.31;;;9.05;100.00
74960;BME280;63518;49.572;1.106;2024-01-30T04:34:33;100665.75;;;9.19;100.00
74960;BME280;63518;49.572;1.106;2024-01-30T04:37:00;100653.97;;;9.02;100.00
74960;BME280;63518;49.572;1.106;2024-01-30T04:39:27;100666.84;;;9.18;100.00
74960;BME280;63518;49.572;1.106;2024-01-30T04:41:54;100668.75;;;9.17;100.00
74960;BME280;63518;49.572;1.106;2024-01-30T04:44:20;100662.56;;;9.05;100.00
74960;BME280;63518;49.572;1.106;2024-01-30T04:46:47;100674.59;;;8.99;100.00
74960;BME280;63518;49.572;1.106;2024-01-30T04:49:14;100663.97;;;9.08;100.00
74960;BME280;63518;49.572;1.106;2024-01-30T04:51:41;100682.16;;;9.09;100.00
74960;BME280;63518;49.572;1.106;2024-01-30T04:54:08;100673.50;;;9.00;100.00
74960;BME280;63518;49.572;1.106;2024-01-30T04:56:34;100670.38;;;9.13;100.00
74960;BME280;63518;49.572;1.106;2024-01-30T04:59:02;100676.63;;;9.09;100.00
74960;BME280;63518;49.572;1.106;2024-01-30T05:01:29;100678.00;;;9.06;100.00
74960;BME280;63518;49.572;1.106;2024-01-30T05:03:56;100675.94;;;9.18;100.00
74960;BME280;63518;49.572;1.106;2024-01-30T05:06:26;100680.81;;;9.11;100.00
74960;BME280;63518;49.572;1.106;2024-01-30T05:08:53;100671.47;;;9.12;100.00
74960;BME280;63518;49.572;1.106;2024-01-30T05:11:20;100671.06;;;9.25;100.00
74960;BME280;63518;49.572;1.106;2024-01-30T05:13:47;100676.34;;;9.05;100.00
74960;BME280;63518;49.572;1.106;2024-01-30T05:16:13;100686.34;;;9.11;100.00
74960;BME280;63518;49.572;1.106;2024-01-30T05:18:40;100691.44;;;9.24;100.00
74960;BME280;63518;49.572;1.106;2024-01-30T05:21:07;100689.66;;;9.13;100.00
74960;BME280;63518;49.572;1.106;2024-01-30T05:23:34;100699.63;;;9.36;100.00
74960;BME280;63518;49.572;1.106;2024-01-30T05:26:00;100688.13;;;9.44;100.00
74960;BME280;63518;49.572;1.106;2024-01-30T05:28:29;100704.31;;;9.19;100.00
74960;BME280;63518;49.572;1.106;2024-01-30T05:30:56;100714.97;;;9.32;100.00
74960;BME280;63518;49.572;1.106;2024-01-30T05:33:23;100711.69;;;9.57;100.00
74960;BME280;63518;49.572;1.106;2024-01-30T05:35:50;100692.59;;;9.29;100.00
74960;BME280;63518;49.572;1.106;2024-01-30T05:38:20;100725.22;;;9.15;100.00
74960;BME280;63518;49.572;1.106;2024-01-30T05:40:47;100720.06;;;9.02;100.00
74960;BME280;63518;49.572;1.106;2024-01-30T05:43:14;100736.19;;;9.32;100.00
74960;BME280;63518;49.572;1.106;2024-01-30T05:45:41;100726.13;;;9.20;100.00
74960;BME280;63518;49.572;1.106;2024-01-30T05:48:08;100712.56;;;8.75;100.00
74960;BME280;63518;49.572;1.106;2024-01-30T05:50:35;100735.06;;;8.89;100.00
74960;BME280;63518;49.572;1.106;2024-01-30T05:53:01;100730.09;;;8.52;100.00
74960;BME280;63518;49.572;1.106;2024-01-30T05:55:28;100745.84;;;8.40;100.00
74960;BME280;63518;49.572;1.106;2024-01-30T05:57:55;100729.84;;;8.54;100.00
74960;BME280;63518;49.572;1.106;2024-01-30T06:00:22;100750.19;;;8.19;100.00
74960;BME280;63518;49.572;1.106;2024-01-30T06:02:49;100749.69;;;8.39;100.00
74960;BME280;63518;49.572;1.106;2024-01-30T06:05:15;100754.28;;;8.33;100.00
74960;BME280;63518;49.572;1.106;2024-01-30T06:07:42;100764.88;;;8.58;100.00
74960;BME280;63518;49.572;1.106;2024-01-30T06:10:09;100739.19;;;8.19;100.00
74960;BME280;63518;49.572;1.106;2024-01-30T06:12:36;100762.78;;;8.32;100.00
74960;BME280;63518;49.572;1.106;2024-01-30T06:15:03;100767.28;;;8.55;100.00
74960;BME280;63518;49.572;1.106;2024-01-30T06:17:29;100762.59;;;8.22;100.00
74960;BME280;63518;49.572;1.106;2024-01-30T06:19:56;100788.72;;;8.53;100.00
74960;BME280;63518;49.572;1.106;2024-01-30T06:22:23;100771.16;;;8.08;100.00
74960;BME280;63518;49.572;1.106;2024-01-30T06:24:50;100772.19;;;8.19;100.00
74960;BME280;63518;49.572;1.106;2024-01-30T06:27:16;100795.56;;;8.33;100.00
74960;BME280;63518;49.572;1.106;2024-01-30T06:29:44;100784.75;;;7.98;100.00
74960;BME280;63518;49.572;1.106;2024-01-30T06:32:10;100771.56;;;7.72;100.00
74960;BME280;63518;49.572;1.106;2024-01-30T06:34:37;100787.69;;;7.80;100.00
74960;BME280;63518;49.572;1.106;2024-01-30T06:37:05;100791.81;;;7.94;100.00
74960;BME280;63518;49.572;1.106;2024-01-30T06:39:32;100796.97;;;7.91;100.00
74960;BME280;63518;49.572;1.106;2024-01-30T06:41:59;100804.75;;;7.94;100.00
74960;BME280;63518;49.572;1.106;2024-01-30T06:44:25;100780.41;;;7.45;100.00
74960;BME280;63518;49.572;1.106;2024-01-30T06:46:54;100802.81;;;7.94;100.00
74960;BME280;63518;49.572;1.106;2024-01-30T06:49:20;100801.44;;;7.80;100.00
74960;BME280;63518;49.572;1.106;2024-01-30T06:51:48;100811.97;;;8.00;100.00
74960;BME280;63518;49.572;1.106;2024-01-30T06:54:15;100809.56;;;7.75;100.00
74960;BME280;63518;49.572;1.106;2024-01-30T06:56:42;100809.16;;;7.54;100.00
74960;BME280;63518;49.572;1.106;2024-01-30T06:59:08;100803.59;;;7.66;100.00
74960;BME280;63518;49.572;1.106;2024-01-30T07:01:35;100815.16;;;7.40;100.00
74960;BME280;63518;49.572;1.106;2024-01-30T07:04:02;100820.22;;;7.71;100.00
74960;BME280;63518;49.572;1.106;2024-01-30T07:06:29;100817.78;;;7.87;100.00
74960;BME280;63518;49.572;1.106;2024-01-30T07:08:55;100808.91;;;7.44;100.00
74960;BME280;63518;49.572;1.106;2024-01-30T07:11:22;100814.19;;;7.34;100.00
74960;BME280;63518;49.572;1.106;2024-01-30T07:13:51;100821.91;;;7.72;100.00
74960;BME280;63518;49.572;1.106;2024-01-30T07:16:17;100830.47;;;7.76;100.00
74960;BME280;63518;49.572;1.106;2024-01-30T07:18:45;100840.28;;;7.60;100.00
74960;BME280;63518;49.572;1.106;2024-01-30T07:21:12;100831.38;;;7.41;100.00
74960;BME280;63518;49.572;1.106;2024-01-30T07:23:38;100835.63;;;7.61;100.00
74960;BME280;63518;49.572;1.106;2024-01-30T07:26:05;100849.38;;;7.61;100.00
74960;BME280;63518;49.572;1.106;2024-01-30T07:28:33;100850.34;;;7.78;100.00
74960;BME280;63518;49.572;1.106;2024-01-30T07:31:00;100847.41;;;7.21;100.00
74960;BME280;63518;49.572;1.106;2024-01-30T07:33:27;100840.22;;;7.43;100.00
74960;BME280;63518;49.572;1.106;2024-01-30T07:35:54;100851.44;;;7.42;100.00
74960;BME280;63518;49.572;1.106;2024-01-30T07:38:21;100862.44;;;7.42;100.00
74960;BME280;63518;49.572;1.106;2024-01-30T07:40:48;100877.13;;;7.47;100.00
74960;BME280;63518;49.572;1.106;2024-01-30T07:43:14;100875.59;;;7.40;100.00
74960;BME280;63518;49.572;1.106;2024-01-30T07:45:41;100874.66;;;7.22;100.00
74960;BME280;63518;49.572;1.106;2024-01-30T07:48:08;100876.19;;;7.30;100.00
74960;BME280;63518;49.572;1.106;2024-01-30T07:50:35;100892.06;;;7.40;100.00
74960;BME280;63518;49.572;1.106;2024-01-30T07:53:02;100895.88;;;7.27;100.00
74960;BME280;63518;49.572;1.106;2024-01-30T07:55:29;100893.25;;;7.44;100.00
74960;BME280;63518;49.572;1.106;2024-01-30T07:57:57;100873.94;;;7.39;100.00
74960;BME280;63518;49.572;1.106;2024-01-30T08:00:25;100894.22;;;7.49;100.00
74960;BME280;63518;49.572;1.106;2024-01-30T08:02:52;100885.84;;;7.21;100.00
74960;BME280;63518;49.572;1.106;2024-01-30T08:05:22;100890.16;;;6.93;100.00
74960;BME280;63518;49.572;1.106;2024-01-30T08:07:50;100896.38;;;7.00;100.00
74960;BME280;63518;49.572;1.106;2024-01-30T08:10:17;100916.38;;;6.89;100.00
74960;BME280;63518;49.572;1.106;2024-01-30T08:12:47;100914.53;;;7.25;100.00
74960;BME280;63518;49.572;1.106;2024-01-30T08:15:14;100915.00;;;7.22;100.00
74960;BME280;63518;49.572;1.106;2024-01-30T08:17:41;100924.41;;;6.91;100.00
74960;BME280;63518;49.572;1.106;2024-01-30T08:20:08;100931.09;;;6.95;100.00
74960;BME280;63518;49.572;1.106;2024-01-30T08:22:38;100924.88;;;6.88;100.00
74960;BME280;63518;49.572;1.106;2024-01-30T08:25:06;100938.03;;;7.09;100.00
74960;BME280;63518;49.572;1.106;2024-01-30T08:27:34;100961.56;;;7.17;100.00
74960;BME280;63518;49.572;1.106;2024-01-30T08:30:02;100956.88;;;7.06;100.00
74960;BME280;63518;49.572;1.106;2024-01-30T08:32:29;100964.41;;;7.10;100.00
74960;BME280;63518;49.572;1.106;2024-01-30T08:34:56;100949.56;;;6.88;100.00
74960;BME280;63518;49.572;1.106;2024-01-30T08:37:24;100952.03;;;7.31;100.00
74960;BME280;63518;49.572;1.106;2024-01-30T08:39:51;100946.16;;;7.16;100.00
74960;BME280;63518;49.572;1.106;2024-01-30T08:42:17;100961.09;;;7.08;100.00
74960;BME280;63518;49.572;1.106;2024-01-30T08:44:49;100958.56;;;7.07;100.00
74960;BME280;63518;49.572;1.106;2024-01-30T08:47:18;100960.88;;;7.33;100.00
74960;BME280;63518;49.572;1.106;2024-01-30T08:49:45;100962.41;;;7.29;100.00
74960;BME280;63518;49.572;1.106;2024-01-30T08:52:12;100974.56;;;6.98;100.00
74960;BME280;63518;49.572;1.106;2024-01-30T08:54:39;100961.19;;;7.13;100.00
74960;BME280;63518;49.572;1.106;2024-01-30T08:57:06;100979.84;;;7.23;100.00
74960;BME280;63518;49.572;1.106;2024-01-30T08:59:32;100966.47;;;7.50;100.00
74960;BME280;63518;49.572;1.106;2024-01-30T09:02:00;100981.28;;;7.37;100.00
74960;BME280;63518;49.572;1.106;2024-01-30T09:04:38;100978.44;;;7.32;100.00
74960;BME280;63518;49.572;1.106;2024-01-30T09:07:05;100992.75;;;7.34;100.00
74960;BME280;63518;49.572;1.106;2024-01-30T09:09:37;100999.34;;;7.56;100.00
74960;BME280;63518;49.572;1.106;2024-01-30T09:12:06;100978.44;;;7.55;100.00
74960;BME280;63518;49.572;1.106;2024-01-30T09:14:36;101000.25;;;7.15;100.00
74960;BME280;63518;49.572;1.106;2024-01-30T09:17:03;101000.78;;;7.82;100.00
74960;BME280;63518;49.572;1.106;2024-01-30T09:19:30;100985.19;;;7.06;100.00
74960;BME280;63518;49.572;1.106;2024-01-30T09:21:57;100994.31;;;7.30;100.00
74960;BME280;63518;49.572;1.106;2024-01-30T09:24:26;100982.38;;;7.95;100.00
74960;BME280;63518;49.572;1.106;2024-01-30T09:26:53;101010.81;;;7.53;100.00
74960;BME280;63518;49.572;1.106;2024-01-30T09:29:21;101010.06;;;7.23;100.00
74960;BME280;63518;49.572;1.106;2024-01-30T09:31:48;101006.63;;;7.51;100.00
74960;BME280;63518;49.572;1.106;2024-01-30T09:34:15;100999.00;;;7.76;100.00
74960;BME280;63518;49.572;1.106;2024-01-30T09:36:42;101015.72;;;7.75;100.00
74960;BME280;63518;49.572;1.106;2024-01-30T09:39:09;101014.28;;;7.96;100.00
74960;BME280;63518;49.572;1.106;2024-01-30T09:41:49;100991.56;;;7.65;100.00
74960;BME280;63518;49.572;1.106;2024-01-30T09:44:20;101023.50;;;8.01;100.00
74960;BME280;63518;49.572;1.106;2024-01-30T09:46:47;101032.38;;;8.44;100.00
74960;BME280;63518;49.572;1.106;2024-01-30T09:49:15;101006.84;;;8.08;100.00
74960;BME280;63518;49.572;1.106;2024-01-30T09:51:45;101024.63;;;8.29;100.00
74960;BME280;63518;49.572;1.106;2024-01-30T09:54:14;101032.00;;;7.88;100.00
74960;BME280;63518;49.572;1.106;2024-01-30T09:56:42;101033.53;;;7.96;100.00
74960;BME280;63518;49.572;1.106;2024-01-30T09:59:09;101031.50;;;7.91;100.00
74960;BME280;63518;49.572;1.106;2024-01-30T10:01:36;101045.84;;;7.81;100.00
74960;BME280;63518;49.572;1.106;2024-01-30T10:04:04;101031.50;;;7.91;100.00
74960;BME280;63518;49.572;1.106;2024-01-30T10:06:31;101045.06;;;8.45;100.00
74960;BME280;63518;49.572;1.106;2024-01-30T10:08:58;101062.00;;;7.78;100.00
74960;BME280;63518;49.572;1.106;2024-01-30T10:11:25;101059.09;;;8.20;100.00
74960;BME280;63518;49.572;1.106;2024-01-30T10:13:51;101057.03;;;8.38;100.00
74960;BME280;63518;49.572;1.106;2024-01-30T10:16:18;101059.69;;;8.33;100.00
74960;BME280;63518;49.572;1.106;2024-01-30T10:18:45;101043.50;;;8.49;100.00
74960;BME280;63518;49.572;1.106;2024-01-30T10:21:12;101038.84;;;8.78;100.00
74960;BME280;63518;49.572;1.106;2024-01-30T10:23:39;101039.53;;;8.85;100.00
74960;BME280;63518;49.572;1.106;2024-01-30T10:26:07;101055.44;;;9.40;100.00
74960;BME280;63518;49.572;1.106;2024-01-30T10:28:34;101056.09;;;9.30;100.00
74960;BME280;63518;49.572;1.106;2024-01-30T10:31:01;101055.34;;;9.35;100.00
74960;BME280;63518;49.572;1.106;2024-01-30T10:33:32;101049.16;;;8.71;100.00
74960;BME280;63518;49.572;1.106;2024-01-30T10:36:04;101058.31;;;8.59;100.00
74960;BME280;63518;49.572;1.106;2024-01-30T10:38:32;101065.47;;;7.85;100.00
74960;BME280;63518;49.572;1.106;2024-01-30T10:41:00;101064.25;;;7.69;100.00
74960;BME280;63518;49.572;1.106;2024-01-30T10:43:33;101060.56;;;8.10;100.00
74960;BME280;63518;49.572;1.106;2024-01-30T10:48:42;101074.38;;;7.45;100.00
74960;BME280;63518;49.572;1.106;2024-01-30T10:51:11;101079.91;;;8.16;100.00
74960;BME280;63518;49.572;1.106;2024-01-30T10:53:41;101070.94;;;7.73;100.00
74960;BME280;63518;49.572;1.106;2024-01-30T10:56:08;101083.09;;;7.54;100.00
74960;BME280;63518;49.572;1.106;2024-01-30T10:58:35;101089.25;;;7.91;100.00
74960;BME280;63518;49.572;1.106;2024-01-30T11:01:02;101086.50;;;7.91;100.00
74960;BME280;63518;49.572;1.106;2024-01-30T11:03:30;101068.69;;;7.82;100.00
74960;BME280;63518;49.572;1.106;2024-01-30T11:05:59;101087.81;;;8.12;100.00
74960;BME280;63518;49.572;1.106;2024-01-30T11:08:27;101080.31;;;7.42;100.00
74960;BME280;63518;49.572;1.106;2024-01-30T11:10:58;101086.66;;;8.60;100.00
74960;BME280;63518;49.572;1.106;2024-01-30T11:13:29;101087.94;;;8.05;100.00
74960;BME280;63518;49.572;1.106;2024-01-30T11:16:03;101086.25;;;8.80;100.00
74960;BME280;63518;49.572;1.106;2024-01-30T11:18:32;101096.78;;;8.19;100.00
74960;BME280;63518;49.572;1.106;2024-01-30T11:20:59;101088.78;;;8.18;100.00
74960;BME280;63518;49.572;1.106;2024-01-30T11:23:28;101090.34;;;9.06;100.00
74960;BME280;63518;49.572;1.106;2024-01-30T11:25:56;101084.00;;;7.78;100.00
74960;BME280;63518;49.572;1.106;2024-01-30T11:28:24;101078.78;;;8.40;100.00
74960;BME280;63518;49.572;1.106;2024-01-30T11:30:51;101097.09;;;8.46;100.00
74960;BME280;63518;49.572;1.106;2024-01-30T11:33:36;101107.91;;;7.89;100.00
74960;BME280;63518;49.572;1.106;2024-01-30T11:36:04;101086.69;;;7.54;100.00
74960;BME280;63518;49.572;1.106;2024-01-30T11:38:33;101098.47;;;7.01;100.00
74960;BME280;63518;49.572;1.106;2024-01-30T11:41:00;101099.88;;;7.99;100.00
74960;BME280;63518;49.572;1.106;2024-01-30T11:43:29;101106.09;;;7.83;100.00
74960;BME280;63518;49.572;1.106;2024-01-30T11:45:56;101076.13;;;7.93;100.00
74960;BME280;63518;49.572;1.106;2024-01-30T11:48:22;101080.75;;;7.81;100.00
74960;BME280;63518;49.572;1.106;2024-01-30T11:50:49;101085.75;;;8.43;100.00
74960;BME280;63518;49.572;1.106;2024-01-30T11:53:18;101082.91;;;8.14;100.00
74960;BME280;63518;49.572;1.106;2024-01-30T11:55:50;101077.03;;;7.99;100.00
74960;BME280;63518;49.572;1.106;2024-01-30T11:58:17;101082.78;;;7.74;100.00
74960;BME280;63518;49.572;1.106;2024-01-30T12:00:55;101089.84;;;8.17;100.00
74960;BME280;63518;49.572;1.106;2024-01-30T12:03:23;101086.03;;;8.18;100.00
74960;BME280;63518;49.572;1.106;2024-01-30T12:05:57;101101.75;;;7.64;100.00
74960;BME280;63518;49.572;1.106;2024-01-30T12:08:26;101102.19;;;8.02;100.00
74960;BME280;63518;49.572;1.106;2024-01-30T12:10:58;101103.97;;;7.43;100.00
74960;BME280;63518;49.572;1.106;2024-01-30T12:13:26;101115.56;;;8.10;100.00
74960;BME280;63518;49.572;1.106;2024-01-30T12:15:59;101095.69;;;8.20;100.00
74960;BME280;63518;49.572;1.106;2024-01-30T12:18:26;101100.50;;;8.01;100.00
74960;BME280;63518;49.572;1.106;2024-01-30T12:20:58;101101.59;;;8.76;100.00
74960;BME280;63518;49.572;1.106;2024-01-30T12:23:27;101086.31;;;8.56;100.00
74960;BME280;63518;49.572;1.106;2024-01-30T12:25:54;101089.59;;;8.30;100.00
74960;BME280;63518;49.572;1.106;2024-01-30T12:28:21;101092.22;;;8.48;100.00
74960;BME280;63518;49.572;1.106;2024-01-30T12:30:48;101095.63;;;9.86;100.00
74960;BME280;63518;49.572;1.106;2024-01-30T12:33:18;101086.56;;;10.24;100.00
74960;BME280;63518;49.572;1.106;2024-01-30T12:35:48;101080.25;;;9.40;100.00
74960;BME280;63518;49.572;1.106;2024-01-30T12:38:28;101099.88;;;8.34;100.00
74960;BME280;63518;49.572;1.106;2024-01-30T12:40:55;101097.53;;;7.49;100.00
74960;BME280;63518;49.572;1.106;2024-01-30T12:43:25;101094.06;;;7.12;100.00
74960;BME280;63518;49.572;1.106;2024-01-30T12:46:03;101097.63;;;7.43;100.00
74960;BME280;63518;49.572;1.106;2024-01-30T12:48:31;101120.03;;;7.28;100.00
74960;BME280;63518;49.572;1.106;2024-01-30T12:50:58;101125.69;;;7.33;100.00
74960;BME280;63518;49.572;1.106;2024-01-30T12:53:25;101125.94;;;7.43;100.00
74960;BME280;63518;49.572;1.106;2024-01-30T12:55:52;101106.78;;;7.25;100.00